createdAt,value
2023-04-29T00:00:13.844Z,48.07
2023-04-29T00:01:16.026Z,48.03
2023-04-29T00:02:18.239Z,48.12
2023-04-29T00:03:20.481Z,47.99
2023-04-29T00:04:23.059Z,48.01
2023-04-29T00:05:25.790Z,48.02
2023-04-29T00:06:28.242Z,48.06
2023-04-29T00:07:31.231Z,48.09
2023-04-29T00:08:33.329Z,48.17
2023-04-29T00:09:35.501Z,48.31
2023-04-29T00:10:37.982Z,48.32
2023-04-29T00:11:40.262Z,48.37
2023-04-29T00:12:42.833Z,48.41
2023-04-29T00:13:44.892Z,48.40
2023-04-29T00:14:47.310Z,48.48
2023-04-29T00:15:49.866Z,48.38
2023-04-29T00:16:52.127Z,48.25
2023-04-29T00:17:54.364Z,48.23
2023-04-29T00:18:56.757Z,48.38
2023-04-29T00:19:58.915Z,48.35
2023-04-29T00:21:01.511Z,48.29
2023-04-29T00:22:03.630Z,48.26
2023-04-29T00:23:06.064Z,48.36
2023-04-29T00:24:08.497Z,48.34
2023-04-29T00:25:10.880Z,48.40
2023-04-29T00:26:14.010Z,48.38
2023-04-29T00:27:18.143Z,48.42
2023-04-29T00:28:20.542Z,48.38
2023-04-29T00:29:22.894Z,48.36
2023-04-29T00:30:25.060Z,48.35
2023-04-29T00:31:27.818Z,48.31
2023-04-29T00:32:31.283Z,48.20
2023-04-29T00:33:33.552Z,48.34
2023-04-29T00:34:35.665Z,48.25
2023-04-29T00:35:37.848Z,48.33
2023-04-29T00:36:40.209Z,48.36
2023-04-29T00:37:42.485Z,48.41
2023-04-29T00:38:44.683Z,48.34
2023-04-29T00:39:46.961Z,48.40
2023-04-29T00:40:49.447Z,48.37
2023-04-29T00:41:52.135Z,48.31
2023-04-29T00:42:54.181Z,48.26
2023-04-29T00:43:56.466Z,48.25
2023-04-29T00:44:58.868Z,48.37
2023-04-29T00:46:00.978Z,48.36
2023-04-29T00:47:03.682Z,48.46
2023-04-29T00:48:06.636Z,48.40
2023-04-29T00:49:10.398Z,48.29
2023-04-29T00:50:13.231Z,48.36
2023-04-29T00:51:16.687Z,48.38
2023-04-29T00:52:19.402Z,48.42
2023-04-29T00:53:21.546Z,48.52
2023-04-29T00:54:24.245Z,48.48
2023-04-29T00:55:26.996Z,48.63
2023-04-29T00:56:30.110Z,48.53
2023-04-29T00:57:34.310Z,48.57
2023-04-29T00:58:36.601Z,48.57
2023-04-29T00:59:38.874Z,48.59
2023-04-29T01:00:41.122Z,48.53
2023-04-29T01:01:43.672Z,48.51
2023-04-29T01:02:48.192Z,48.57
2023-04-29T01:03:51.224Z,48.57
2023-04-29T01:04:53.946Z,48.71
2023-04-29T01:07:36.245Z,48.74
2023-04-29T01:08:59.816Z,48.75
2023-04-29T01:10:19.920Z,48.61
2023-04-29T01:11:26.579Z,48.15
2023-04-29T01:12:35.279Z,48.14
2023-04-29T01:13:53.251Z,48.01
2023-04-29T01:16:38.345Z,47.99
2023-04-29T01:18:00.892Z,47.90
2023-04-29T01:19:06.827Z,47.95
2023-04-29T01:20:10.864Z,47.97
2023-04-29T01:21:13.190Z,48.05
2023-04-29T01:22:15.574Z,48.12
2023-04-29T01:23:18.422Z,48.10
2023-04-29T01:24:21.042Z,48.04
2023-04-29T01:25:25.476Z,48.15
2023-04-29T01:29:22.696Z,48.40
2023-04-29T01:30:47.473Z,48.22
2023-04-29T01:33:31.143Z,48.20
2023-04-29T01:36:14.570Z,48.22
2023-04-29T01:37:20.763Z,48.31
2023-04-29T01:38:37.400Z,48.31
2023-04-29T01:40:06.475Z,48.39
2023-04-29T01:43:58.772Z,48.79
2023-04-29T01:45:05.663Z,48.89
2023-04-29T01:46:13.132Z,48.84
2023-04-29T01:47:16.312Z,48.87
2023-04-29T01:48:20.723Z,48.68
2023-04-29T01:49:26.856Z,48.44
2023-04-29T01:50:29.419Z,48.32
2023-04-29T01:51:33.447Z,48.27
2023-04-29T01:52:36.305Z,48.33
2023-04-29T01:53:39.082Z,48.29
2023-04-29T01:54:41.156Z,48.26
2023-04-29T01:55:43.541Z,48.37
2023-04-29T01:56:50.649Z,48.30
2023-04-29T01:59:16.774Z,48.26
2023-04-29T02:00:29.557Z,48.38
2023-04-29T02:01:32.093Z,48.36
2023-04-29T02:02:34.591Z,48.35
2023-04-29T02:03:38.878Z,48.51
2023-04-29T02:04:43.527Z,48.48
2023-04-29T02:05:45.898Z,48.40
2023-04-29T02:06:48.166Z,48.47
2023-04-29T02:07:52.182Z,48.42
2023-04-29T02:08:55.407Z,48.44
2023-04-29T02:09:58.669Z,48.36
2023-04-29T02:11:01.005Z,48.54
2023-04-29T02:12:10.646Z,48.39
2023-04-29T02:13:12.737Z,48.32
2023-04-29T02:14:15.206Z,48.35
2023-04-29T02:15:18.412Z,48.34
2023-04-29T02:16:21.062Z,48.29
2023-04-29T02:17:25.209Z,48.17
2023-04-29T02:18:27.755Z,48.34
2023-04-29T02:19:30.026Z,48.35
2023-04-29T02:20:32.197Z,48.38
2023-04-29T02:21:34.446Z,48.42
2023-04-29T02:22:36.642Z,48.47
2023-04-29T02:23:39.532Z,48.39
2023-04-29T02:24:41.778Z,48.38
2023-04-29T02:25:44.025Z,48.38
2023-04-29T02:26:46.553Z,48.53
2023-04-29T02:27:48.718Z,48.50
2023-04-29T02:28:51.593Z,48.44
2023-04-29T02:29:53.940Z,48.39
2023-04-29T02:30:57.074Z,48.39
2023-04-29T02:31:59.270Z,48.37
2023-04-29T02:33:01.567Z,48.47
2023-04-29T02:34:03.649Z,48.45
2023-04-29T02:35:06.613Z,48.36
2023-04-29T02:36:09.918Z,48.33
2023-04-29T02:37:12.687Z,48.32
2023-04-29T02:38:15.709Z,48.36
2023-04-29T02:39:17.817Z,48.25
2023-04-29T02:40:21.000Z,48.38
2023-04-29T02:41:23.278Z,48.42
2023-04-29T02:42:25.921Z,48.41
2023-04-29T02:43:28.075Z,48.33
2023-04-29T02:44:30.342Z,48.34
2023-04-29T02:45:32.708Z,48.19
2023-04-29T02:46:34.911Z,48.15
2023-04-29T02:47:37.738Z,48.15
2023-04-29T02:48:40.056Z,48.22
2023-04-29T02:49:42.208Z,48.26
2023-04-29T02:50:44.461Z,48.15
2023-04-29T02:51:46.841Z,48.13
2023-04-29T02:52:49.135Z,48.09
2023-04-29T02:53:51.649Z,48.05
2023-04-29T02:54:53.817Z,48.12
2023-04-29T02:55:56.128Z,48.00
2023-04-29T02:56:58.727Z,48.04
2023-04-29T02:58:01.459Z,48.13
2023-04-29T02:59:03.453Z,48.13
2023-04-29T03:00:07.611Z,48.14
2023-04-29T03:01:10.065Z,48.32
2023-04-29T03:02:12.471Z,48.40
2023-04-29T03:03:15.574Z,48.36
2023-04-29T03:04:18.198Z,48.42
2023-04-29T03:05:20.546Z,48.58
2023-04-29T03:06:22.823Z,48.40
2023-04-29T03:07:26.050Z,48.48
2023-04-29T03:08:28.725Z,48.65
2023-04-29T03:09:31.315Z,48.65
2023-04-29T03:10:34.039Z,48.63
2023-04-29T03:11:37.966Z,48.50
2023-04-29T03:12:41.326Z,48.47
2023-04-29T03:13:44.730Z,48.56
2023-04-29T03:14:47.193Z,48.62
2023-04-29T03:15:49.478Z,48.68
2023-04-29T03:16:51.693Z,48.73
2023-04-29T03:17:54.049Z,48.70
2023-04-29T03:18:57.095Z,48.68
2023-04-29T03:21:01.120Z,48.76
2023-04-29T03:22:03.545Z,48.76
2023-04-29T03:23:06.491Z,48.83
2023-04-29T03:24:09.255Z,48.88
2023-04-29T03:25:12.778Z,48.99
2023-04-29T03:26:15.167Z,48.86
2023-04-29T03:27:17.998Z,48.85
2023-04-29T03:28:20.414Z,48.81
2023-04-29T03:29:23.333Z,48.82
2023-04-29T03:30:25.648Z,48.87
2023-04-29T03:31:29.779Z,48.71
2023-04-29T03:32:32.709Z,48.80
2023-04-29T03:33:35.019Z,48.72
2023-04-29T03:34:37.300Z,48.84
2023-04-29T03:35:44.643Z,48.70
2023-04-29T03:38:16.744Z,48.56
2023-04-29T03:39:19.626Z,48.52
2023-04-29T03:40:21.920Z,48.43
2023-04-29T03:41:24.626Z,48.35
2023-04-29T03:42:27.194Z,48.33
2023-04-29T03:43:29.469Z,48.28
2023-04-29T03:44:32.436Z,48.09
2023-04-29T03:45:35.003Z,48.13
2023-04-29T03:46:37.812Z,48.23
2023-04-29T03:47:40.753Z,48.11
2023-04-29T03:48:43.052Z,47.80
2023-04-29T03:49:45.679Z,47.77
2023-04-29T03:50:48.005Z,47.82
2023-04-29T03:51:50.393Z,47.75
2023-04-29T03:52:53.676Z,47.83
2023-04-29T03:53:55.817Z,47.74
2023-04-29T03:54:59.988Z,47.72
2023-04-29T03:57:05.564Z,47.53
2023-04-29T03:58:09.774Z,47.56
2023-04-29T03:59:12.005Z,47.40
2023-04-29T04:00:15.942Z,47.52
2023-04-29T04:01:22.821Z,47.38
2023-04-29T04:02:25.458Z,47.37
2023-04-29T04:03:28.170Z,47.29
2023-04-29T04:04:31.665Z,47.22
2023-04-29T04:05:34.347Z,47.15
2023-04-29T04:06:38.431Z,47.06
2023-04-29T04:07:40.712Z,47.03
2023-04-29T04:09:01.648Z,47.03
2023-04-29T04:10:06.174Z,47.01
2023-04-29T04:11:08.325Z,47.05
2023-04-29T04:12:12.204Z,47.01
2023-04-29T04:13:16.447Z,47.09
2023-04-29T04:14:18.783Z,47.29
2023-04-29T04:15:22.077Z,47.07
2023-04-29T04:16:24.879Z,47.13
2023-04-29T04:17:27.543Z,47.12
2023-04-29T04:18:29.761Z,47.05
2023-04-29T04:19:32.109Z,46.84
2023-04-29T04:20:38.478Z,46.86
2023-04-29T04:21:41.322Z,46.77
2023-04-29T04:22:45.283Z,46.86
2023-04-29T04:23:58.396Z,46.88
2023-04-29T04:25:00.868Z,46.95
2023-04-29T04:26:03.142Z,46.85
2023-04-29T04:27:20.841Z,46.83
2023-04-29T04:28:24.448Z,46.92
2023-04-29T04:29:33.178Z,46.66
2023-04-29T04:30:37.268Z,46.79
2023-04-29T04:31:40.870Z,46.69
2023-04-29T04:32:43.515Z,46.72
2023-04-29T04:33:45.741Z,46.81
2023-04-29T04:34:48.800Z,46.67
2023-04-29T04:35:51.098Z,46.62
2023-04-29T04:36:53.265Z,46.71
2023-04-29T04:37:57.813Z,46.68
2023-04-29T04:39:00.446Z,46.82
2023-04-29T04:40:03.039Z,46.95
2023-04-29T04:41:09.894Z,47.00
2023-04-29T04:42:14.419Z,46.68
2023-04-29T04:43:17.161Z,46.73
2023-04-29T04:44:19.336Z,46.73
2023-04-29T04:45:32.405Z,46.77
2023-04-29T04:46:35.166Z,46.54
2023-04-29T04:47:40.531Z,46.48
2023-04-29T04:48:44.654Z,46.60
2023-04-29T04:49:48.323Z,46.66
2023-04-29T04:50:51.126Z,46.79
2023-04-29T04:51:53.984Z,47.02
2023-04-29T04:52:56.885Z,46.82
2023-04-29T04:54:01.065Z,47.02
2023-04-29T04:55:05.132Z,46.96
2023-04-29T04:56:09.549Z,46.87
2023-04-29T04:57:12.464Z,46.84
2023-04-29T04:58:14.718Z,46.89
2023-04-29T04:59:17.374Z,46.96
2023-04-29T05:00:19.784Z,46.74
2023-04-29T05:01:22.252Z,46.38
2023-04-29T05:02:25.085Z,46.29
2023-04-29T05:03:28.087Z,46.30
2023-04-29T05:04:30.648Z,46.17
2023-04-29T05:05:33.524Z,46.19
2023-04-29T05:06:35.721Z,46.40
2023-04-29T05:07:37.906Z,46.63
2023-04-29T05:08:40.569Z,47.81
2023-04-29T05:09:43.760Z,50.10
2023-04-29T05:10:45.946Z,49.63
2023-04-29T05:11:48.499Z,47.74
2023-04-29T05:12:52.937Z,47.94
2023-04-29T05:13:55.581Z,46.89
2023-04-29T05:14:57.836Z,45.72
2023-04-29T05:16:06.512Z,44.29
2023-04-29T05:17:09.371Z,42.46
2023-04-29T05:18:13.206Z,41.51
2023-04-29T05:19:16.215Z,40.23
2023-04-29T05:20:18.860Z,39.10
2023-04-29T05:21:21.449Z,38.10
2023-04-29T05:22:24.314Z,38.29
2023-04-29T05:23:26.599Z,36.72
2023-04-29T05:24:28.920Z,36.05
2023-04-29T05:25:31.614Z,35.52
2023-04-29T05:26:34.507Z,35.33
2023-04-29T05:27:37.977Z,35.45
2023-04-29T05:28:41.286Z,35.41
2023-04-29T05:30:55.187Z,34.96
2023-04-29T05:31:57.540Z,34.97
2023-04-29T05:32:59.673Z,35.11
2023-04-29T05:34:02.922Z,35.28
2023-04-29T05:35:07.534Z,35.59
2023-04-29T05:36:11.216Z,36.06
2023-04-29T05:37:13.524Z,36.25
2023-04-29T05:38:18.618Z,36.61
2023-04-29T05:39:26.195Z,37.24
2023-04-29T05:40:30.359Z,37.45
2023-04-29T05:41:34.913Z,37.09
2023-04-29T05:42:44.608Z,37.20
2023-04-29T05:43:47.275Z,37.48
2023-04-29T05:44:50.959Z,37.21
2023-04-29T05:45:53.270Z,36.79
2023-04-29T05:46:56.030Z,37.01
2023-04-29T05:47:58.793Z,36.73
2023-04-29T05:49:01.180Z,36.70
2023-04-29T05:50:03.959Z,36.27
2023-04-29T05:51:06.707Z,35.63
2023-04-29T05:52:09.064Z,34.56
2023-04-29T05:53:13.273Z,33.88
2023-04-29T05:54:17.179Z,34.03
2023-04-29T05:55:21.181Z,34.34
2023-04-29T05:56:24.606Z,34.64
2023-04-29T05:57:27.172Z,35.12
2023-04-29T05:58:29.361Z,34.33
2023-04-29T05:59:32.388Z,34.18
2023-04-29T06:00:35.938Z,34.77
2023-04-29T06:01:40.161Z,34.26
2023-04-29T06:02:57.513Z,33.84
2023-04-29T06:03:49.560Z,33.70
2023-04-29T06:04:59.826Z,34.07
2023-04-29T06:06:16.357Z,34.55
2023-04-29T06:07:24.063Z,34.38
2023-04-29T06:08:29.756Z,34.42
2023-04-29T06:09:39.934Z,34.76
2023-04-29T06:10:42.269Z,35.01
2023-04-29T06:11:45.976Z,35.22
2023-04-29T06:12:48.720Z,35.47
2023-04-29T06:13:51.075Z,35.39
2023-04-29T06:14:53.307Z,35.67
2023-04-29T06:15:56.134Z,35.91
2023-04-29T06:16:59.428Z,36.29
2023-04-29T06:18:01.889Z,36.53
2023-04-29T06:19:04.636Z,36.47
2023-04-29T06:20:09.049Z,36.83
2023-04-29T06:21:14.540Z,36.89
2023-04-29T06:22:17.787Z,36.80
2023-04-29T06:23:22.343Z,36.83
2023-04-29T06:24:25.061Z,37.06
2023-04-29T06:25:28.643Z,38.15
2023-04-29T06:26:31.479Z,40.07
2023-04-29T06:27:34.490Z,42.93
2023-04-29T06:28:37.775Z,46.03
2023-04-29T06:29:40.702Z,45.60
2023-04-29T06:30:43.316Z,44.35
2023-04-29T06:33:05.205Z,44.33
2023-04-29T06:34:08.235Z,44.70
2023-04-29T06:35:12.321Z,45.78
2023-04-29T06:36:18.954Z,45.86
2023-04-29T06:37:23.738Z,45.36
2023-04-29T06:39:50.687Z,45.19
2023-04-29T06:41:00.939Z,45.48
2023-04-29T06:42:22.816Z,46.16
2023-04-29T06:43:44.066Z,46.64
2023-04-29T06:45:06.425Z,46.19
2023-04-29T06:46:14.954Z,46.36
2023-04-29T06:47:25.855Z,46.21
2023-04-29T06:48:30.308Z,46.60
2023-04-29T06:49:32.592Z,46.57
2023-04-29T06:50:34.826Z,46.66
2023-04-29T06:51:37.870Z,46.44
2023-04-29T06:52:40.689Z,48.38
2023-04-29T06:53:43.021Z,48.12
2023-04-29T06:54:45.502Z,48.31
2023-04-29T06:55:47.770Z,48.41
2023-04-29T06:56:50.116Z,47.30
2023-04-29T06:57:56.188Z,46.41
2023-04-29T06:58:58.829Z,45.61
2023-04-29T07:00:01.144Z,44.98
2023-04-29T07:01:03.489Z,45.16
2023-04-29T07:02:06.118Z,44.35
2023-04-29T07:03:08.895Z,44.36
2023-04-29T07:04:11.519Z,43.66
2023-04-29T07:05:15.815Z,43.62
2023-04-29T07:06:19.063Z,43.33
2023-04-29T07:07:21.848Z,43.50
2023-04-29T07:08:24.040Z,42.67
2023-04-29T07:09:28.054Z,42.50
2023-04-29T07:10:30.354Z,42.69
2023-04-29T07:11:32.536Z,42.72
2023-04-29T07:12:34.675Z,43.51
2023-04-29T07:13:36.833Z,44.27
2023-04-29T07:14:39.331Z,44.42
2023-04-29T07:15:41.389Z,44.69
2023-04-29T07:16:43.773Z,44.40
2023-04-29T07:17:46.312Z,44.48
2023-04-29T07:18:49.178Z,44.06
2023-04-29T07:19:51.613Z,44.03
2023-04-29T07:20:54.141Z,43.70
2023-04-29T07:21:56.691Z,43.35
2023-04-29T07:22:59.110Z,43.14
2023-04-29T07:24:02.856Z,42.94
2023-04-29T07:25:05.393Z,42.98
2023-04-29T07:26:10.243Z,42.57
2023-04-29T07:27:12.681Z,42.38
2023-04-29T07:28:14.759Z,42.21
2023-04-29T07:29:17.055Z,42.21
2023-04-29T07:30:19.617Z,42.10
2023-04-29T07:31:21.880Z,41.87
2023-04-29T07:32:37.655Z,41.79
2023-04-29T07:33:41.037Z,41.42
2023-04-29T07:34:45.544Z,41.23
2023-04-29T07:35:47.770Z,41.06
2023-04-29T07:36:50.564Z,40.98
2023-04-29T07:37:53.299Z,41.00
2023-04-29T07:38:55.489Z,41.02
2023-04-29T07:39:57.768Z,40.88
2023-04-29T07:41:00.682Z,40.67
2023-04-29T07:42:03.007Z,40.45
2023-04-29T07:43:07.417Z,40.39
2023-04-29T07:44:09.512Z,40.22
2023-04-29T07:45:11.796Z,39.86
2023-04-29T07:46:14.251Z,39.89
2023-04-29T07:47:16.557Z,39.54
2023-04-29T07:48:18.741Z,39.80
2023-04-29T07:49:22.552Z,39.75
2023-04-29T07:50:24.997Z,39.80
2023-04-29T07:51:28.202Z,39.55
2023-04-29T07:52:30.440Z,39.58
2023-04-29T07:53:33.083Z,39.67
2023-04-29T07:54:36.154Z,39.56
2023-04-29T07:55:38.382Z,39.46
2023-04-29T07:56:41.048Z,39.27
2023-04-29T07:57:43.170Z,39.15
2023-04-29T07:58:45.623Z,38.92
2023-04-29T07:59:52.844Z,38.90
2023-04-29T08:00:56.121Z,38.97
2023-04-29T08:01:59.176Z,38.83
2023-04-29T08:03:01.717Z,38.50
2023-04-29T08:04:04.037Z,38.51
2023-04-29T08:05:09.106Z,38.37
2023-04-29T08:06:12.297Z,38.27
2023-04-29T08:07:16.747Z,38.20
2023-04-29T08:08:18.985Z,38.20
2023-04-29T08:09:21.305Z,38.40
2023-04-29T08:10:23.972Z,38.43
2023-04-29T08:11:26.938Z,38.40
2023-04-29T08:12:29.940Z,38.46
2023-04-29T08:13:33.354Z,38.57
2023-04-29T08:14:38.601Z,38.69
2023-04-29T08:15:40.769Z,38.62
2023-04-29T08:16:43.077Z,38.55
2023-04-29T08:17:45.594Z,38.54
2023-04-29T08:18:52.986Z,38.60
2023-04-29T08:19:55.312Z,38.66
2023-04-29T08:20:59.947Z,38.67
2023-04-29T08:22:03.316Z,38.67
2023-04-29T08:23:05.796Z,38.66
2023-04-29T08:24:11.325Z,38.62
2023-04-29T08:25:13.413Z,38.62
2023-04-29T08:26:15.818Z,38.66
2023-04-29T08:27:19.122Z,38.40
2023-04-29T08:28:22.025Z,38.65
2023-04-29T08:30:38.873Z,38.45
2023-04-29T08:31:42.797Z,38.81
2023-04-29T08:32:44.986Z,38.81
2023-04-29T08:33:48.034Z,38.72
2023-04-29T08:34:50.305Z,38.80
2023-04-29T08:35:59.743Z,38.72
2023-04-29T08:37:03.070Z,38.82
2023-04-29T08:38:05.969Z,38.56
2023-04-29T08:39:08.997Z,38.31
2023-04-29T08:40:13.376Z,38.32
2023-04-29T08:41:19.750Z,38.27
2023-04-29T08:43:36.512Z,38.18
2023-04-29T08:44:40.755Z,38.00
2023-04-29T08:45:44.030Z,38.10
2023-04-29T08:46:47.364Z,37.87
2023-04-29T08:47:50.436Z,38.05
2023-04-29T08:48:55.931Z,37.74
2023-04-29T08:51:19.248Z,38.11
2023-04-29T08:52:21.236Z,37.72
2023-04-29T08:53:24.008Z,37.81
2023-04-29T08:54:27.058Z,37.96
2023-04-29T08:55:29.470Z,37.74
2023-04-29T08:57:50.105Z,37.94
2023-04-29T08:58:54.502Z,37.92
2023-04-29T08:59:59.110Z,37.93
2023-04-29T09:01:01.845Z,38.00
2023-04-29T09:02:06.007Z,38.16
2023-04-29T09:03:14.812Z,37.54
2023-04-29T09:05:08.606Z,37.85
2023-04-29T09:06:10.996Z,37.81
2023-04-29T09:07:16.188Z,37.80
2023-04-29T09:08:18.798Z,38.04
2023-04-29T09:09:21.124Z,38.08
2023-04-29T09:10:24.285Z,37.97
2023-04-29T09:11:27.549Z,38.16
2023-04-29T09:12:30.407Z,37.63
2023-04-29T09:13:32.705Z,37.98
2023-04-29T09:14:38.035Z,37.82
2023-04-29T09:15:40.092Z,38.04
2023-04-29T09:16:42.318Z,37.69
2023-04-29T09:17:49.062Z,37.74
2023-04-29T09:18:54.344Z,36.95
2023-04-29T09:19:58.711Z,37.43
2023-04-29T09:21:23.979Z,37.62
2023-04-29T09:23:46.118Z,37.80
2023-04-29T09:24:50.688Z,37.45
2023-04-29T09:25:56.795Z,37.95
2023-04-29T09:27:01.019Z,37.77
2023-04-29T09:28:15.127Z,37.81
2023-04-29T09:29:17.758Z,37.78
2023-04-29T09:30:20.530Z,37.77
2023-04-29T09:31:28.861Z,37.80
2023-04-29T09:32:31.464Z,37.87
2023-04-29T09:33:52.961Z,37.85
2023-04-29T09:34:59.255Z,37.86
2023-04-29T09:36:01.664Z,41.32
2023-04-29T09:37:05.066Z,41.02
2023-04-29T09:38:12.295Z,41.56
2023-04-29T09:39:18.547Z,41.07
2023-04-29T09:41:56.591Z,40.22
2023-04-29T09:43:01.170Z,40.05
2023-04-29T09:44:06.775Z,40.06
2023-04-29T09:45:09.940Z,39.36
2023-04-29T09:46:16.098Z,40.07
2023-04-29T09:47:23.067Z,40.18
2023-04-29T09:48:32.212Z,40.18
2023-04-29T09:49:40.607Z,40.18
2023-04-29T09:50:44.155Z,40.56
2023-04-29T09:51:54.732Z,40.27
2023-04-29T09:53:00.716Z,40.51
2023-04-29T09:54:11.109Z,40.52
2023-04-29T09:55:15.895Z,40.71
2023-04-29T09:56:22.411Z,40.85
2023-04-29T09:57:26.473Z,41.02
2023-04-29T09:58:32.528Z,41.25
2023-04-29T09:59:37.794Z,40.87
2023-04-29T10:00:42.444Z,40.70
2023-04-29T10:01:49.265Z,41.78
2023-04-29T10:02:54.077Z,41.50
2023-04-29T10:03:58.905Z,41.74
2023-04-29T10:06:24.320Z,41.79
2023-04-29T10:08:49.243Z,41.32
2023-04-29T10:09:55.931Z,41.35
2023-04-29T10:11:02.629Z,41.59
2023-04-29T10:12:06.682Z,41.44
2023-04-29T10:13:10.184Z,41.44
2023-04-29T10:15:38.587Z,41.75
2023-04-29T10:17:05.902Z,41.52
2023-04-29T10:19:39.872Z,41.65
2023-04-29T10:20:46.756Z,42.36
2023-04-29T10:21:51.055Z,42.03
2023-04-29T10:22:56.208Z,42.29
2023-04-29T10:24:02.995Z,42.34
2023-04-29T10:25:15.948Z,42.04
2023-04-29T10:26:20.851Z,43.17
2023-04-29T10:27:25.532Z,43.93
2023-04-29T10:28:34.811Z,42.66
2023-04-29T10:29:37.974Z,42.29
2023-04-29T10:30:47.099Z,42.78
2023-04-29T10:31:52.373Z,42.59
2023-04-29T10:32:56.919Z,42.43
2023-04-29T10:34:01.441Z,42.66
2023-04-29T10:35:11.215Z,42.50
2023-04-29T10:36:17.788Z,42.58
2023-04-29T10:37:20.227Z,42.48
2023-04-29T10:38:33.872Z,42.48
2023-04-29T10:40:14.990Z,43.09
2023-04-29T10:42:57.190Z,43.84
2023-04-29T10:44:04.150Z,43.55
2023-04-29T10:45:28.794Z,42.86
2023-04-29T10:46:31.148Z,43.58
2023-04-29T10:47:33.557Z,44.23
2023-04-29T10:48:36.833Z,44.12
2023-04-29T10:49:39.026Z,45.50
2023-04-29T10:52:03.675Z,44.32
2023-04-29T10:53:06.386Z,43.98
2023-04-29T10:54:11.803Z,44.66
2023-04-29T10:55:14.571Z,45.51
2023-04-29T10:58:53.076Z,46.27
2023-04-29T10:59:55.241Z,44.84
2023-04-29T11:02:09.544Z,44.42
2023-04-29T11:03:14.257Z,45.95
2023-04-29T11:04:18.434Z,44.62
2023-04-29T11:05:31.743Z,44.29
2023-04-29T11:06:38.757Z,44.18
2023-04-29T11:07:41.095Z,45.49
2023-04-29T11:08:43.177Z,46.75
2023-04-29T11:09:48.882Z,45.28
2023-04-29T11:10:56.100Z,45.55
2023-04-29T11:12:00.915Z,44.99
2023-04-29T11:13:28.844Z,46.83
2023-04-29T11:14:37.719Z,46.18
2023-04-29T11:15:41.018Z,45.13
2023-04-29T11:18:10.618Z,45.70
2023-04-29T11:19:16.232Z,45.25
2023-04-29T11:20:18.548Z,45.61
2023-04-29T11:21:22.123Z,44.24
2023-04-29T11:22:28.016Z,43.75
2023-04-29T11:23:31.716Z,45.20
2023-04-29T11:24:35.743Z,45.98
2023-04-29T11:25:39.608Z,45.51
2023-04-29T11:26:46.535Z,45.82
2023-04-29T11:27:49.119Z,46.30
2023-04-29T11:28:51.459Z,45.75
2023-04-29T11:29:55.547Z,45.21
2023-04-29T11:32:13.851Z,43.46
2023-04-29T11:33:16.406Z,44.71
2023-04-29T11:34:22.191Z,44.56
2023-04-29T11:35:24.861Z,46.60
2023-04-29T11:36:29.084Z,46.48
2023-04-29T11:37:33.178Z,47.46
2023-04-29T11:38:39.049Z,46.60
2023-04-29T11:39:41.334Z,46.79
2023-04-29T11:40:50.459Z,46.12
2023-04-29T11:43:19.410Z,47.56
2023-04-29T11:44:21.736Z,47.20
2023-04-29T11:45:23.952Z,45.33
2023-04-29T11:46:26.855Z,45.43
2023-04-29T11:47:30.555Z,46.01
2023-04-29T11:48:32.883Z,47.24
2023-04-29T11:49:35.488Z,48.68
2023-04-29T11:50:37.687Z,45.37
2023-04-29T11:51:40.236Z,42.48
2023-04-29T11:52:42.438Z,45.31
2023-04-29T11:53:45.271Z,45.82
2023-04-29T11:54:47.588Z,46.19
2023-04-29T11:55:50.429Z,48.86
2023-04-29T11:56:54.236Z,47.42
2023-04-29T11:57:56.781Z,47.03
2023-04-29T11:58:58.725Z,48.01
2023-04-29T12:00:01.013Z,48.67
2023-04-29T12:01:04.826Z,48.97
2023-04-29T12:02:12.378Z,47.79
2023-04-29T12:03:19.411Z,47.48
2023-04-29T12:04:22.526Z,45.42
2023-04-29T12:05:26.728Z,46.46
2023-04-29T12:06:29.723Z,45.87
2023-04-29T12:07:31.941Z,47.49
2023-04-29T12:08:34.551Z,46.60
2023-04-29T12:09:44.168Z,46.91
2023-04-29T12:10:50.076Z,45.29
2023-04-29T12:11:52.656Z,45.81
2023-04-29T12:12:54.847Z,45.71
2023-04-29T12:13:57.327Z,46.13
2023-04-29T12:14:59.494Z,46.42
2023-04-29T12:16:03.145Z,46.85
2023-04-29T12:17:05.534Z,47.47
2023-04-29T12:18:08.689Z,47.39
2023-04-29T12:19:11.608Z,47.70
2023-04-29T12:20:15.297Z,47.48
2023-04-29T12:21:17.485Z,46.54
2023-04-29T12:22:20.050Z,46.70
2023-04-29T12:23:24.247Z,45.63
2023-04-29T12:24:26.457Z,46.67
2023-04-29T12:25:28.672Z,44.79
2023-04-29T12:26:31.346Z,45.70
2023-04-29T12:27:37.665Z,46.03
2023-04-29T12:28:59.396Z,45.69
2023-04-29T12:30:32.557Z,43.11
2023-04-29T12:31:50.387Z,43.31
2023-04-29T12:33:17.331Z,45.18
2023-04-29T12:34:29.016Z,46.98
2023-04-29T12:35:31.299Z,47.81
2023-04-29T12:36:34.474Z,46.97
2023-04-29T12:37:37.272Z,46.02
2023-04-29T12:38:39.639Z,45.88
2023-04-29T12:39:41.785Z,46.44
2023-04-29T12:40:49.061Z,44.91
2023-04-29T12:41:59.905Z,44.56
2023-04-29T12:43:10.122Z,44.04
2023-04-29T12:44:12.508Z,44.47
2023-04-29T12:45:31.389Z,45.24
2023-04-29T12:46:36.606Z,46.93
2023-04-29T12:47:38.944Z,44.84
2023-04-29T12:48:41.727Z,43.76
2023-04-29T12:49:45.619Z,44.41
2023-04-29T12:50:51.191Z,46.97
2023-04-29T12:51:53.408Z,47.41
2023-04-29T12:52:55.489Z,46.69
2023-04-29T12:54:00.250Z,47.29
2023-04-29T12:55:02.499Z,47.23
2023-04-29T12:56:05.691Z,48.53
2023-04-29T12:57:07.854Z,47.51
2023-04-29T12:58:10.038Z,45.59
2023-04-29T12:59:12.420Z,47.10
2023-04-29T13:00:14.744Z,47.09
2023-04-29T13:01:18.640Z,47.69
2023-04-29T13:02:21.503Z,45.82
2023-04-29T13:03:23.903Z,44.77
2023-04-29T13:04:26.271Z,47.02
2023-04-29T13:05:29.079Z,48.48
2023-04-29T13:06:32.641Z,48.03
2023-04-29T13:07:36.971Z,48.71
2023-04-29T13:08:39.965Z,46.80
2023-04-29T13:09:42.019Z,47.47
2023-04-29T13:10:44.268Z,49.08
2023-04-29T13:11:46.393Z,46.55
2023-04-29T13:12:48.564Z,46.02
2023-04-29T13:13:50.651Z,46.31
2023-04-29T13:14:54.614Z,46.83
2023-04-29T13:15:57.322Z,48.00
2023-04-29T13:16:59.750Z,47.66
2023-04-29T13:18:03.406Z,48.46
2023-04-29T13:20:15.276Z,47.40
2023-04-29T13:21:17.680Z,46.13
2023-04-29T13:22:19.756Z,44.86
2023-04-29T13:23:21.938Z,45.79
2023-04-29T13:24:24.190Z,45.72
2023-04-29T13:25:26.944Z,44.66
2023-04-29T13:26:29.489Z,46.02
2023-04-29T13:27:32.124Z,46.98
2023-04-29T13:28:34.586Z,47.30
2023-04-29T13:29:37.464Z,48.67
2023-04-29T13:30:41.660Z,48.84
2023-04-29T13:31:44.566Z,47.06
2023-04-29T13:32:54.026Z,46.12
2023-04-29T13:34:23.326Z,44.21
2023-04-29T13:35:26.346Z,47.33
2023-04-29T13:36:28.842Z,49.32
2023-04-29T13:38:55.651Z,44.25
2023-04-29T13:39:57.619Z,43.55
2023-04-29T13:41:00.376Z,46.03
2023-04-29T13:42:03.308Z,48.59
2023-04-29T13:43:07.252Z,50.09
2023-04-29T13:44:23.673Z,53.65
2023-04-29T13:45:16.775Z,50.75
2023-04-29T13:46:22.823Z,51.09
2023-04-29T13:47:31.312Z,50.68
2023-04-29T13:49:11.409Z,48.58
2023-04-29T13:51:14.016Z,48.29
2023-04-29T13:52:26.263Z,49.04
2023-04-29T13:53:30.532Z,47.02
2023-04-29T13:54:48.176Z,49.05
2023-04-29T13:55:58.712Z,49.57
2023-04-29T13:58:02.984Z,50.02
2023-04-29T13:59:44.377Z,48.08
2023-04-29T14:02:21.697Z,47.66
2023-04-29T14:03:51.331Z,48.43
2023-04-29T14:04:54.669Z,49.00
2023-04-29T14:05:58.304Z,49.11
2023-04-29T14:07:00.879Z,50.61
2023-04-29T14:08:04.017Z,50.16
2023-04-29T14:09:06.357Z,50.37
2023-04-29T14:10:09.103Z,50.81
2023-04-29T14:11:11.578Z,50.65
2023-04-29T14:12:14.027Z,49.94
2023-04-29T14:13:16.325Z,49.90
2023-04-29T14:14:18.840Z,50.72
2023-04-29T14:15:22.887Z,50.76
2023-04-29T14:16:25.491Z,51.71
2023-04-29T14:17:28.156Z,51.33
2023-04-29T14:18:30.449Z,51.26
2023-04-29T14:19:32.632Z,52.08
2023-04-29T14:20:34.901Z,51.86
2023-04-29T14:21:39.241Z,51.17
2023-04-29T14:22:41.562Z,50.72
2023-04-29T14:23:43.930Z,50.98
2023-04-29T14:26:28.230Z,51.10
2023-04-29T14:27:27.126Z,51.45
2023-04-29T14:28:29.680Z,49.93
2023-04-29T14:29:34.001Z,50.62
2023-04-29T14:30:36.691Z,50.81
2023-04-29T14:31:38.932Z,50.55
2023-04-29T14:32:42.045Z,51.16
2023-04-29T14:33:44.221Z,52.04
2023-04-29T14:34:47.866Z,52.01
2023-04-29T14:35:49.855Z,51.60
2023-04-29T14:36:52.142Z,50.44
2023-04-29T14:37:54.218Z,51.07
2023-04-29T14:38:56.833Z,49.55
2023-04-29T14:40:00.154Z,47.00
2023-04-29T14:41:04.032Z,48.06
2023-04-29T14:42:12.451Z,49.13
2023-04-29T14:43:15.810Z,49.60